createdAt,value
2022-12-07T00:01:51.811Z,18.10
2022-12-07T00:04:21.219Z,19.77
2022-12-07T00:06:54.326Z,18.25
2022-12-07T00:09:23.737Z,17.73
2022-12-07T00:11:53.909Z,19.92
2022-12-07T00:14:23.339Z,18.52
2022-12-07T00:16:53.832Z,18.42
2022-12-07T00:19:22.685Z,18.40
2022-12-07T00:21:51.593Z,17.48
2022-12-07T00:24:20.924Z,19.73
2022-12-07T00:26:52.416Z,18.45
2022-12-07T00:29:26.385Z,19.23
2022-12-07T00:31:55.390Z,19.50
2022-12-07T00:34:24.382Z,19.02
2022-12-07T00:36:53.606Z,19.70
2022-12-07T00:39:23.167Z,18.65
2022-12-07T00:41:52.378Z,18.85
2022-12-07T00:44:21.613Z,19.33
2022-12-07T00:46:50.329Z,20.58
2022-12-07T00:49:19.411Z,20.15
2022-12-07T00:51:50.953Z,21.35
2022-12-07T00:54:19.920Z,23.27
2022-12-07T00:56:48.546Z,20.83
2022-12-07T00:59:17.325Z,21.02
2022-12-07T01:01:46.236Z,19.92
2022-12-07T01:04:15.314Z,20.10
2022-12-07T01:06:44.154Z,20.75
2022-12-07T01:09:12.947Z,21.85
2022-12-07T01:11:42.163Z,21.50
2022-12-07T01:14:11.721Z,23.90
2022-12-07T01:16:42.051Z,23.20
2022-12-07T01:19:11.104Z,23.45
2022-12-07T01:21:40.536Z,25.17
2022-12-07T01:24:12.161Z,25.35
2022-12-07T01:26:41.255Z,24.52
2022-12-07T01:29:10.207Z,25.30
2022-12-07T01:31:39.285Z,25.02
2022-12-07T01:34:08.362Z,25.58
2022-12-07T01:36:39.463Z,24.95
2022-12-07T01:39:09.456Z,23.80
2022-12-07T01:41:42.054Z,24.27
2022-12-07T01:44:26.821Z,21.85
2022-12-07T01:47:04.156Z,22.48
2022-12-07T01:49:39.584Z,24.73
2022-12-07T01:52:27.857Z,22.77
2022-12-07T01:55:02.065Z,22.23
2022-12-07T01:57:32.975Z,24.10
2022-12-07T02:00:02.838Z,26.40
2022-12-07T02:03:00.978Z,25.50
2022-12-07T02:05:30.355Z,24.92
2022-12-07T02:08:00.090Z,25.15
2022-12-07T02:10:31.911Z,24.00
2022-12-07T02:13:14.503Z,21.13
2022-12-07T02:16:34.483Z,24.83
2022-12-07T02:19:11.989Z,22.13
2022-12-07T02:21:46.407Z,23.02
2022-12-07T02:24:51.141Z,21.48
2022-12-07T02:27:59.580Z,22.13
2022-12-07T02:30:33.761Z,22.80
2022-12-07T02:33:25.783Z,21.23
2022-12-07T02:36:15.671Z,20.92
2022-12-07T02:39:08.742Z,20.75
2022-12-07T02:41:47.310Z,18.40
2022-12-07T02:44:20.533Z,17.05
2022-12-07T02:46:55.785Z,16.23
2022-12-07T02:49:26.923Z,17.58
2022-12-07T02:51:55.974Z,18.30
2022-12-07T02:54:25.144Z,15.05
2022-12-07T02:56:59.765Z,17.25
2022-12-07T02:59:49.595Z,26.75
2022-12-07T03:02:30.542Z,18.90
2022-12-07T03:05:37.141Z,23.25
2022-12-07T03:08:29.962Z,31.67
2022-12-07T03:10:59.644Z,29.52
2022-12-07T03:13:32.541Z,27.40
2022-12-07T03:16:11.122Z,26.98
2022-12-07T03:18:49.481Z,26.65
2022-12-07T03:21:22.157Z,27.08
2022-12-07T03:23:57.864Z,30.90
2022-12-07T03:26:36.715Z,35.03
2022-12-07T03:29:20.063Z,35.17
2022-12-07T03:31:57.297Z,35.63
2022-12-07T03:34:38.628Z,39.58
2022-12-07T03:37:25.907Z,39.60
2022-12-07T03:40:13.057Z,39.80
2022-12-07T03:42:42.376Z,41.75
2022-12-07T03:45:13.182Z,43.15
2022-12-07T03:48:09.504Z,42.75
2022-12-07T03:51:15.577Z,42.83
2022-12-07T03:54:02.130Z,35.42
2022-12-07T03:56:31.975Z,40.47
2022-12-07T03:59:00.634Z,42.65
2022-12-07T04:01:29.762Z,40.08
2022-12-07T04:03:58.533Z,37.83
2022-12-07T04:06:30.063Z,38.08
2022-12-07T04:08:59.229Z,38.67
2022-12-07T04:11:27.954Z,39.47
2022-12-07T04:14:15.343Z,41.53
2022-12-07T04:16:44.790Z,37.75
2022-12-07T04:19:16.603Z,37.85
2022-12-07T04:21:45.719Z,38.40
2022-12-07T04:24:15.825Z,33.05
2022-12-07T04:26:45.475Z,38.05
2022-12-07T04:29:14.820Z,36.15
2022-12-07T04:31:43.585Z,35.42
2022-12-07T04:34:13.012Z,35.47
2022-12-07T04:36:42.687Z,25.48
2022-12-07T04:39:29.646Z,36.75
2022-12-07T04:41:59.084Z,35.28
2022-12-07T04:44:28.958Z,37.03
2022-12-07T04:46:58.790Z,34.00
2022-12-07T04:49:27.968Z,30.25
2022-12-07T04:51:56.851Z,31.45
2022-12-07T04:54:25.515Z,32.45
2022-12-07T04:56:54.392Z,31.27
2022-12-07T04:59:23.026Z,29.95
2022-12-07T05:01:52.037Z,27.15
2022-12-07T05:04:20.818Z,25.42
2022-12-07T05:06:49.731Z,27.42
2022-12-07T05:09:18.532Z,25.60
2022-12-07T05:11:47.661Z,25.75
2022-12-07T05:14:21.412Z,22.13
2022-12-07T05:16:52.301Z,24.92
2022-12-07T05:19:21.698Z,24.23
2022-12-07T05:21:50.685Z,20.63
2022-12-07T05:24:19.718Z,16.83
2022-12-07T05:26:48.987Z,19.17
2022-12-07T05:29:20.153Z,18.77
2022-12-07T05:31:48.965Z,18.10
2022-12-07T05:34:18.020Z,17.00
2022-12-07T05:36:47.226Z,19.48
2022-12-07T05:39:16.427Z,15.38
2022-12-07T05:42:03.727Z,13.45
2022-12-07T05:44:32.998Z,14.95
2022-12-07T05:47:02.317Z,14.93
2022-12-07T05:49:32.139Z,14.57
2022-12-07T05:52:01.327Z,14.55
2022-12-07T05:54:30.259Z,11.65
2022-12-07T05:56:58.994Z,13.88
2022-12-07T05:59:29.299Z,14.23
2022-12-07T06:02:01.344Z,13.75
2022-12-07T06:04:33.772Z,13.65
2022-12-07T06:07:03.640Z,12.95
2022-12-07T06:09:32.459Z,14.05
2022-12-07T06:12:20.505Z,15.32
2022-12-07T06:14:49.258Z,15.95
2022-12-07T06:17:18.620Z,13.00
2022-12-07T06:19:47.389Z,12.02
2022-12-07T06:22:17.946Z,12.75
2022-12-07T06:24:46.948Z,13.13
2022-12-07T06:27:16.381Z,13.02
2022-12-07T06:29:47.520Z,14.60
2022-12-07T06:32:16.577Z,15.48
2022-12-07T06:34:45.078Z,14.35
2022-12-07T06:37:14.099Z,16.33
2022-12-07T06:39:42.818Z,17.58
2022-12-07T06:42:11.472Z,14.55
2022-12-07T06:44:41.158Z,14.90
2022-12-07T06:50:01.865Z,13.40
2022-12-07T06:52:32.217Z,13.75
2022-12-07T06:55:02.123Z,12.88
2022-12-07T06:57:33.419Z,11.25
2022-12-07T07:00:02.885Z,11.13
2022-12-07T07:02:32.309Z,11.20
2022-12-07T07:05:02.074Z,9.35
2022-12-07T07:07:31.334Z,8.98
2022-12-07T07:10:00.250Z,9.32
2022-12-07T07:12:29.201Z,9.85
2022-12-07T07:14:58.228Z,11.15
2022-12-07T07:17:27.554Z,16.52
2022-12-07T07:19:56.103Z,10.48
2022-12-07T07:22:24.864Z,9.05
2022-12-07T07:24:53.538Z,8.68
2022-12-07T07:27:22.388Z,9.18
2022-12-07T07:29:51.141Z,8.93
2022-12-07T07:32:19.811Z,8.30
2022-12-07T07:34:48.532Z,8.95
2022-12-07T07:37:22.125Z,8.32
2022-12-07T07:39:51.079Z,7.78
2022-12-07T07:42:19.931Z,7.97
2022-12-07T07:44:49.403Z,6.03
2022-12-07T07:47:18.112Z,6.93
2022-12-07T07:49:48.340Z,8.13
2022-12-07T07:52:16.992Z,7.95
2022-12-07T07:54:45.773Z,9.25
2022-12-07T07:57:14.392Z,6.93
2022-12-07T07:59:43.066Z,8.20
2022-12-07T08:02:16.885Z,7.72
2022-12-07T08:04:46.739Z,7.30
2022-12-07T08:07:16.902Z,7.40
2022-12-07T08:09:45.944Z,6.85
2022-12-07T08:12:14.553Z,6.75
2022-12-07T08:14:43.188Z,7.50
2022-12-07T08:17:12.156Z,7.30
2022-12-07T08:19:41.305Z,5.00
2022-12-07T08:22:09.946Z,6.82
2022-12-07T08:24:38.875Z,8.40
2022-12-07T08:27:10.469Z,7.05
2022-12-07T08:29:39.148Z,5.88
2022-12-07T08:32:09.762Z,6.82
2022-12-07T08:34:41.391Z,6.47
2022-12-07T08:37:10.150Z,6.55
2022-12-07T08:39:39.038Z,5.88
2022-12-07T08:42:07.593Z,6.30
2022-12-07T08:44:36.469Z,6.93
2022-12-07T08:47:08.603Z,6.70
2022-12-07T08:49:45.833Z,6.15
2022-12-07T08:52:14.983Z,6.38
2022-12-07T08:54:46.693Z,6.25
2022-12-07T08:57:15.476Z,5.05
2022-12-07T08:59:44.124Z,4.07
2022-12-07T09:02:12.912Z,6.38
2022-12-07T09:04:41.936Z,5.70
2022-12-07T09:07:11.393Z,5.55
2022-12-07T09:09:40.216Z,5.70
2022-12-07T09:12:09.191Z,6.25
2022-12-07T09:14:38.055Z,6.00
2022-12-07T09:17:09.094Z,6.65
2022-12-07T09:19:38.759Z,4.88
2022-12-07T09:22:07.832Z,6.20
2022-12-07T09:24:36.903Z,5.55
2022-12-07T09:27:06.053Z,6.03
2022-12-07T09:29:34.756Z,6.40
2022-12-07T09:32:06.882Z,6.95
2022-12-07T09:34:40.394Z,7.20
2022-12-07T09:37:09.862Z,7.15
2022-12-07T09:39:49.412Z,6.50
2022-12-07T09:42:30.475Z,7.00
2022-12-07T09:45:01.267Z,7.20
2022-12-07T09:47:31.261Z,6.68
2022-12-07T09:50:07.951Z,6.20
2022-12-07T09:52:39.286Z,6.07
2022-12-07T09:55:29.941Z,6.00
2022-12-07T09:58:00.238Z,5.97
2022-12-07T10:00:30.296Z,6.35
2022-12-07T10:03:01.384Z,7.05
2022-12-07T10:05:35.864Z,7.13
2022-12-07T10:08:05.651Z,7.22
2022-12-07T10:10:40.108Z,6.47
2022-12-07T10:13:14.472Z,7.15
2022-12-07T10:18:25.526Z,6.03
2022-12-07T10:21:05.442Z,6.65
2022-12-07T10:23:34.790Z,7.90
2022-12-07T10:26:42.055Z,7.20
2022-12-07T10:29:16.904Z,7.25
2022-12-07T10:31:48.734Z,8.25
2022-12-07T10:35:01.784Z,7.15
2022-12-07T10:37:31.599Z,6.20
2022-12-07T10:40:00.340Z,6.20
2022-12-07T10:42:31.817Z,5.18
2022-12-07T10:45:17.683Z,7.15
2022-12-07T10:48:12.110Z,6.05
2022-12-07T10:51:12.675Z,6.40
2022-12-07T10:54:07.427Z,5.80
2022-12-07T11:10:43.080Z,5.05
2022-12-07T11:13:28.396Z,5.00
2022-12-07T11:16:19.495Z,5.28
2022-12-07T11:18:59.894Z,5.15
2022-12-07T11:21:35.835Z,5.15
2022-12-07T11:24:10.407Z,6.65
2022-12-07T11:26:59.790Z,7.18
2022-12-07T11:29:36.140Z,6.85
2022-12-07T11:32:42.101Z,6.00
2022-12-07T11:35:13.694Z,5.97
2022-12-07T11:37:45.064Z,6.53
2022-12-07T11:40:38.696Z,6.88
2022-12-07T11:43:22.393Z,5.15
2022-12-07T11:46:15.704Z,6.25
2022-12-07T11:48:48.714Z,6.30
2022-12-07T11:51:22.693Z,6.63
2022-12-07T11:53:59.223Z,10.35
2022-12-07T11:56:29.427Z,7.80
2022-12-07T11:59:15.666Z,7.90
2022-12-07T12:01:54.771Z,8.10
2022-12-07T12:05:04.811Z,8.30
2022-12-07T12:10:42.553Z,6.95
2022-12-07T12:16:41.756Z,6.50
2022-12-07T12:19:35.205Z,6.40
2022-12-07T12:22:19.743Z,5.68
2022-12-07T12:27:31.515Z,5.93
2022-12-07T12:30:04.084Z,6.32
2022-12-07T12:32:32.919Z,6.55
2022-12-07T12:35:33.543Z,5.80
2022-12-07T12:38:37.569Z,6.47
2022-12-07T12:41:06.878Z,6.88
2022-12-07T12:43:50.739Z,6.68
2022-12-07T12:46:35.365Z,6.53
2022-12-07T12:49:37.801Z,6.35
2022-12-07T12:52:16.182Z,7.07
2022-12-07T12:55:04.857Z,6.57
2022-12-07T12:57:34.637Z,7.80
2022-12-07T13:00:17.702Z,7.32
2022-12-07T13:02:58.514Z,7.28
2022-12-07T13:05:33.707Z,6.45
2022-12-07T13:08:24.174Z,6.88
2022-12-07T13:10:52.966Z,7.60
2022-12-07T13:13:22.352Z,6.65
2022-12-07T13:15:56.705Z,6.78
2022-12-07T13:18:32.306Z,8.35
2022-12-07T13:21:09.967Z,8.13
2022-12-07T13:23:47.398Z,8.02
2022-12-07T13:26:24.980Z,8.10
2022-12-07T13:29:11.694Z,8.30
2022-12-07T13:31:58.827Z,8.15
2022-12-07T13:34:41.878Z,9.70
2022-12-07T13:37:14.671Z,7.32
2022-12-07T13:39:52.905Z,7.80
2022-12-07T13:42:30.733Z,7.85
2022-12-07T13:45:01.543Z,8.00
2022-12-07T13:47:58.306Z,7.32
2022-12-07T13:50:26.978Z,6.78
2022-12-07T13:53:02.745Z,7.07
2022-12-07T13:55:31.923Z,7.47
2022-12-07T13:58:02.075Z,8.40
2022-12-07T14:00:32.175Z,6.93
2022-12-07T14:03:23.228Z,6.80
2022-12-07T14:06:07.908Z,6.13
2022-12-07T14:08:36.524Z,6.13
2022-12-07T14:11:05.786Z,7.60
2022-12-07T14:13:37.393Z,8.60
2022-12-07T14:16:22.957Z,7.60
2022-12-07T14:18:51.720Z,7.93
2022-12-07T14:21:26.699Z,8.05
2022-12-07T14:24:05.716Z,6.57
2022-12-07T14:26:34.694Z,6.80
2022-12-07T14:29:28.077Z,6.40
2022-12-07T14:31:57.672Z,7.95
2022-12-07T14:34:26.755Z,7.13
2022-12-07T14:36:55.973Z,11.88
2022-12-07T14:39:24.696Z,9.95
2022-12-07T14:41:53.637Z,8.57
2022-12-07T14:44:26.076Z,8.55
2022-12-07T14:49:46.475Z,7.85
2022-12-07T14:55:29.159Z,7.60
2022-12-07T14:57:59.358Z,6.15
2022-12-07T15:00:30.075Z,10.15
2022-12-07T15:02:59.470Z,7.95
2022-12-07T15:05:28.687Z,8.43
2022-12-07T15:07:57.764Z,7.80
2022-12-07T15:10:33.398Z,8.00
2022-12-07T15:13:22.204Z,8.95
2022-12-07T15:15:52.543Z,7.07
2022-12-07T15:18:22.043Z,11.50
2022-12-07T15:20:53.207Z,8.13
2022-12-07T15:23:22.664Z,7.72
2022-12-07T15:25:51.587Z,7.25
2022-12-07T15:28:20.310Z,9.65
2022-12-07T15:30:49.208Z,8.95
2022-12-07T15:33:18.295Z,9.18
2022-12-07T15:35:51.379Z,9.65
2022-12-07T15:38:33.362Z,12.63
2022-12-07T15:41:08.886Z,11.27
2022-12-07T15:43:56.723Z,10.05
2022-12-07T15:46:26.032Z,7.18
2022-12-07T15:48:55.134Z,7.05
2022-12-07T15:51:24.827Z,8.60
2022-12-07T15:53:54.321Z,9.85
2022-12-07T15:56:23.013Z,6.90
2022-12-07T15:58:52.036Z,8.27
2022-12-07T16:01:21.847Z,13.88
2022-12-07T16:03:50.796Z,7.15
2022-12-07T16:06:20.112Z,8.77
2022-12-07T16:08:49.448Z,7.10
2022-12-07T16:11:18.389Z,9.57
2022-12-07T16:13:47.139Z,10.63
2022-12-07T16:16:17.967Z,11.55
2022-12-07T16:18:48.828Z,12.85
2022-12-07T16:21:24.704Z,12.93
2022-12-07T16:23:54.490Z,14.15
2022-12-07T16:26:24.132Z,15.43
2022-12-07T16:28:54.744Z,15.13
2022-12-07T16:31:26.761Z,17.38
2022-12-07T16:33:58.012Z,16.35
2022-12-07T16:37:02.116Z,18.02
2022-12-07T16:39:20.233Z,17.17
2022-12-07T16:41:50.019Z,16.83
2022-12-07T16:44:18.919Z,18.08
2022-12-07T16:46:48.116Z,15.98
2022-12-07T16:49:18.276Z,15.18
2022-12-07T16:51:50.434Z,13.73
2022-12-07T16:54:27.493Z,17.40
2022-12-07T16:56:56.474Z,13.10
2022-12-07T16:59:25.181Z,11.60
2022-12-07T17:01:54.514Z,10.85
2022-12-07T17:04:23.449Z,11.18
2022-12-07T17:06:52.460Z,14.10
2022-12-07T17:09:21.846Z,14.27
2022-12-07T17:11:50.816Z,13.43
2022-12-07T17:14:38.084Z,13.02
2022-12-07T17:17:06.851Z,11.90
2022-12-07T17:19:35.854Z,14.00
2022-12-07T17:22:04.708Z,13.25
2022-12-07T17:24:33.457Z,9.63
2022-12-07T17:27:02.630Z,10.43
2022-12-07T17:29:31.434Z,13.13
2022-12-07T17:32:01.693Z,15.50
2022-12-07T17:34:30.543Z,11.68
2022-12-07T17:36:59.683Z,13.68
2022-12-07T17:39:28.644Z,12.65
2022-12-07T17:42:15.558Z,14.48
2022-12-07T17:44:44.261Z,14.23
2022-12-07T17:47:13.297Z,15.35
2022-12-07T17:49:42.334Z,18.27
2022-12-07T17:52:29.817Z,13.50
2022-12-07T17:54:58.886Z,15.73
2022-12-07T17:57:28.111Z,16.13
2022-12-07T17:59:57.335Z,17.65
2022-12-07T18:02:26.339Z,16.48
2022-12-07T18:04:55.442Z,13.18
2022-12-07T18:07:24.677Z,13.68
2022-12-07T18:09:53.968Z,13.70
2022-12-07T18:12:23.078Z,12.55
2022-12-07T18:14:51.885Z,11.05
2022-12-07T18:17:21.016Z,14.00
2022-12-07T18:19:49.942Z,13.23
2022-12-07T18:22:18.758Z,12.70
2022-12-07T18:24:47.454Z,12.45
2022-12-07T18:27:16.334Z,13.00
2022-12-07T18:29:45.113Z,11.30
2022-12-07T18:32:14.261Z,13.05
2022-12-07T18:34:43.336Z,12.35
2022-12-07T18:37:12.027Z,11.93
2022-12-07T18:39:40.735Z,10.98
2022-12-07T18:42:09.734Z,11.93
2022-12-07T18:44:38.635Z,12.80
2022-12-07T18:47:07.638Z,12.35
2022-12-07T18:49:36.331Z,12.05
2022-12-07T18:52:05.638Z,12.48
2022-12-07T18:54:34.345Z,11.35
2022-12-07T18:57:03.341Z,12.52
2022-12-07T18:59:47.149Z,12.25
2022-12-07T19:02:16.360Z,11.57
2022-12-07T19:04:45.369Z,12.65
2022-12-07T19:07:14.520Z,13.80
2022-12-07T19:09:43.360Z,13.80
2022-12-07T19:12:15.044Z,13.15
2022-12-07T19:14:44.059Z,13.93
2022-12-07T19:17:14.823Z,13.20
2022-12-07T19:19:46.347Z,11.77
2022-12-07T19:22:21.458Z,13.60
2022-12-07T19:24:56.232Z,12.43
2022-12-07T19:27:25.301Z,12.52
2022-12-07T19:29:54.119Z,14.35
2022-12-07T19:32:23.322Z,12.32
2022-12-07T19:34:52.214Z,11.43
2022-12-07T19:37:21.301Z,15.10
2022-12-07T19:39:52.542Z,12.80
2022-12-07T19:42:21.537Z,12.95
2022-12-07T19:44:50.793Z,14.88
2022-12-07T19:47:19.649Z,12.57
2022-12-07T19:49:48.802Z,13.35
2022-12-07T19:52:17.623Z,13.60
2022-12-07T19:54:47.502Z,12.40
2022-12-07T19:57:17.268Z,12.77
2022-12-07T19:59:48.369Z,13.20
2022-12-07T20:02:17.873Z,11.80
2022-12-07T20:04:46.871Z,12.60
2022-12-07T20:07:15.805Z,13.02
2022-12-07T20:09:44.696Z,12.73
2022-12-07T20:12:31.842Z,14.68
2022-12-07T20:15:01.127Z,12.07
2022-12-07T20:17:30.532Z,11.15
2022-12-07T20:19:59.235Z,13.02
2022-12-07T20:22:27.850Z,11.52
2022-12-07T20:24:56.612Z,9.95
2022-12-07T20:27:25.381Z,11.95
2022-12-07T20:29:54.095Z,11.13
2022-12-07T20:32:22.815Z,12.05
2022-12-07T20:34:54.334Z,12.65
2022-12-07T20:37:23.118Z,11.82
2022-12-07T20:39:51.955Z,11.05
2022-12-07T20:42:39.021Z,12.45
2022-12-07T20:45:10.353Z,11.52
2022-12-07T20:47:39.397Z,11.55
2022-12-07T20:50:08.977Z,7.45
2022-12-07T20:52:37.774Z,11.55
2022-12-07T20:55:06.948Z,11.57
2022-12-07T20:57:35.959Z,10.43
2022-12-07T21:00:08.283Z,11.18
2022-12-07T21:02:39.919Z,10.88
2022-12-07T21:05:08.828Z,11.10
2022-12-07T21:07:41.285Z,10.75
2022-12-07T21:10:10.250Z,11.20
2022-12-07T21:12:39.186Z,12.05
2022-12-07T21:15:09.262Z,10.68
2022-12-07T21:17:38.085Z,9.35
2022-12-07T21:20:07.455Z,11.20
2022-12-07T21:22:37.272Z,10.45
2022-12-07T21:25:07.077Z,10.95
2022-12-07T21:27:36.154Z,12.02
2022-12-07T21:30:05.973Z,11.55
2022-12-07T21:32:35.179Z,11.60
2022-12-07T21:35:04.362Z,11.85
2022-12-07T21:37:33.263Z,10.30
2022-12-07T21:40:02.822Z,12.60
2022-12-07T21:42:31.474Z,12.63
2022-12-07T21:45:00.594Z,10.57
2022-12-07T21:47:29.795Z,9.68
2022-12-07T21:49:58.695Z,11.55
2022-12-07T21:52:27.795Z,10.05
2022-12-07T21:54:56.717Z,11.73
2022-12-07T21:57:25.535Z,9.13
2022-12-07T21:59:54.102Z,12.88
2022-12-07T22:02:23.060Z,12.45
2022-12-07T22:04:52.168Z,11.40
2022-12-07T22:07:20.848Z,10.05
2022-12-07T22:09:49.792Z,9.63
2022-12-07T22:12:18.518Z,12.70
2022-12-07T22:15:05.898Z,11.30
2022-12-07T22:17:35.030Z,9.77
2022-12-07T22:20:05.396Z,10.43
2022-12-07T22:22:34.282Z,13.45
2022-12-07T22:25:03.348Z,9.20
2022-12-07T22:27:33.441Z,11.18
2022-12-07T22:30:02.022Z,9.75
2022-12-07T22:35:19.711Z,10.65
2022-12-07T22:37:48.231Z,10.43
2022-12-07T22:40:17.039Z,11.25
2022-12-07T22:42:45.846Z,10.27
2022-12-07T22:45:14.646Z,10.98
2022-12-07T22:47:43.044Z,6.60
2022-12-07T22:50:12.158Z,7.07
2022-12-07T22:52:41.155Z,12.85
2022-12-07T22:55:12.287Z,9.30
2022-12-07T22:57:41.231Z,10.38
2022-12-07T23:00:10.451Z,11.98
2022-12-07T23:02:39.238Z,9.30
2022-12-07T23:05:09.424Z,11.20
2022-12-07T23:07:38.568Z,10.73
2022-12-07T23:10:07.935Z,9.02
2022-12-07T23:12:55.866Z,10.10
2022-12-07T23:15:24.714Z,9.02
2022-12-07T23:17:53.480Z,9.82
2022-12-07T23:20:22.357Z,10.73
2022-12-07T23:22:51.019Z,9.50
2022-12-07T23:25:20.037Z,10.63
2022-12-07T23:27:48.812Z,8.90
2022-12-07T23:30:17.893Z,10.48
2022-12-07T23:32:46.602Z,10.23
2022-12-07T23:35:15.402Z,9.32
2022-12-07T23:37:44.068Z,10.35
2022-12-07T23:40:12.974Z,9.60
2022-12-07T23:42:41.809Z,8.13
2022-12-07T23:45:11.518Z,10.27
2022-12-07T23:47:40.415Z,9.60
2022-12-07T23:50:09.793Z,8.35
2022-12-07T23:52:38.525Z,10.63
2022-12-07T23:55:07.712Z,9.00
2022-12-07T23:57:36.212Z,9.23
